Time;durP1;ratioP1;P1;durP2;ratioP2;P2;SDS_P1;SDS_P2;PMS_P1;PMS_P2;Temp;Humidity;BMP_temperature;BMP_pressure;BME280_temperature;BME280_humidity;BME280_pressure;Samples;Min_cycle;Max_cycle;Signal;HPM_P1;HPM_P2
2022/01/02 00:01:36;;;;;;;;;;;;;;;-2.31;68.58;98546.13;5013173;28;20299;-78
2022/01/02 00:04:02;;;;;;;;;;;;;;;-2.38;68.11;98541.72;5012253;28;19999;-79
2022/01/02 00:06:28;;;;;;;;;;;;;;;-2.28;68.77;98556.41;5013505;28;19917;-78
2022/01/02 00:08:55;;;;;;;;;;;;;;;-2.19;68.79;98553.25;4995518;28;19918;-78
2022/01/02 00:11:21;;;;;;;;;;;;;;;-2.03;69.70;98560.47;5011753;28;20388;-78
2022/01/02 00:13:47;;;;;;;;;;;;;;;-2.15;67.58;98570.31;5011997;28;19967;-78
2022/01/02 00:16:16;;;;;;;;;;;;;;;-2.07;69.34;98569.69;5011732;28;19921;-78
2022/01/02 00:18:49;;;;;;;;;;;;;;;-2.01;69.90;98569.03;5011912;28;19913;-78
2022/01/02 00:21:14;;;;;;;;;;;;;;;-2.15;68.63;98561.00;5012695;28;19967;-78
2022/01/02 00:26:39;;;;;;;;;;;;;;;-2.21;69.41;98577.75;4999929;28;20344;-78
2022/01/02 00:29:04;;;;;;;;;;;;;;;-2.17;69.17;98585.50;5012983;28;19917;-78
2022/01/02 00:31:30;;;;;;;;;;;;;;;-2.40;67.16;98584.81;5011684;28;19918;-78
2022/01/02 00:33:56;;;;;;;;;;;;;;;-2.26;68.01;98587.75;5012936;28;19964;-79
2022/01/02 00:36:21;;;;;;;;;;;;;;;-2.10;69.33;98579.78;5011565;28;19920;-79
2022/01/02 00:38:47;;;;;;;;;;;;;;;-1.90;69.23;98584.56;5012839;28;19913;-78
2022/01/02 00:41:12;;;;;;;;;;;;;;;-2.23;64.90;98592.94;4995178;28;19921;-78
2022/01/02 00:43:40;;;;;;;;;;;;;;;-2.29;65.59;98613.09;5011824;28;19975;-78
2022/01/02 00:46:05;;;;;;;;;;;;;;;-2.09;68.30;98601.81;4995172;28;19921;-79
2022/01/02 00:48:31;;;;;;;;;;;;;;;-2.04;67.40;98607.03;5012573;28;19921;-79
2022/01/02 00:51:03;;;;;;;;;;;;;;;-2.23;66.35;98608.19;5012694;28;19917;-78
2022/01/02 00:53:32;;;;;;;;;;;;;;;-2.14;68.45;98612.69;4995300;28;19932;-78
2022/01/02 00:55:58;;;;;;;;;;;;;;;-2.35;67.21;98613.75;5011122;28;19944;-78
2022/01/02 00:58:25;;;;;;;;;;;;;;;-2.53;67.65;98625.03;5011631;28;19921;-78
2022/01/02 01:00:51;;;;;;;;;;;;;;;-2.39;68.95;98621.22;5011409;28;19919;-79
2022/01/02 01:03:19;;;;;;;;;;;;;;;-2.62;67.57;98629.00;5011323;28;19917;-78
2022/01/02 01:05:45;;;;;;;;;;;;;;;-2.66;69.09;98632.25;5011347;28;19963;-78
2022/01/02 01:08:11;;;;;;;;;;;;;;;-2.76;68.63;98640.41;5011241;28;19921;-78
2022/01/02 01:10:38;;;;;;;;;;;;;;;-2.81;68.86;98631.78;4995001;28;19922;-78
2022/01/02 01:13:04;;;;;;;;;;;;;;;-2.79;68.46;98629.28;4995105;28;20012;-78
2022/01/02 01:15:30;;;;;;;;;;;;;;;-2.64;68.64;98625.56;5011142;28;20004;-78
2022/01/02 01:17:58;;;;;;;;;;;;;;;-2.93;67.08;98623.75;4994857;28;20404;-78
2022/01/02 01:20:24;;;;;;;;;;;;;;;-2.98;67.99;98627.81;4995068;28;19917;-78
2022/01/02 01:22:50;;;;;;;;;;;;;;;-2.73;68.40;98619.34;5010962;28;19944;-78
2022/01/02 01:25:18;;;;;;;;;;;;;;;-2.67;67.62;98622.91;4994967;28;19913;-78
2022/01/02 01:27:44;;;;;;;;;;;;;;;-2.52;68.28;98624.22;5011184;28;19925;-78
2022/01/02 01:30:09;;;;;;;;;;;;;;;-2.66;68.03;98646.63;4994651;28;19920;-78
2022/01/02 01:32:35;;;;;;;;;;;;;;;-2.65;67.33;98648.38;5013271;28;19921;-78
2022/01/02 01:35:02;;;;;;;;;;;;;;;-2.50;68.11;98646.31;5014930;28;19967;-78
2022/01/02 01:37:28;;;;;;;;;;;;;;;-2.66;66.08;98647.50;5014483;28;20355;-78
2022/01/02 01:39:54;;;;;;;;;;;;;;;-2.68;67.11;98656.75;4998076;28;19925;-78
2022/01/02 01:42:29;;;;;;;;;;;;;;;-2.54;66.95;98658.84;4998357;28;19968;-78
2022/01/02 01:47:40;;;;;;;;;;;;;;;-2.42;67.84;98666.88;5014837;28;19979;-78
2022/01/02 01:50:08;;;;;;;;;;;;;;;-2.71;65.08;98673.53;4998141;28;19920;-78
2022/01/02 01:52:33;;;;;;;;;;;;;;;-2.65;66.81;98691.53;5014409;28;20292;-78
2022/01/02 01:54:59;;;;;;;;;;;;;;;-2.66;65.93;98693.19;4998126;28;19921;-78
2022/01/02 01:57:25;;;;;;;;;;;;;;;-2.57;66.72;98688.44;4998157;28;20399;-78
2022/01/02 01:59:51;;;;;;;;;;;;;;;-2.63;65.63;98693.28;4998013;28;19917;-78
2022/01/02 02:02:17;;;;;;;;;;;;;;;-2.82;64.50;98711.28;5014113;28;19924;-78
2022/01/02 02:04:43;;;;;;;;;;;;;;;-2.80;65.29;98704.56;4997780;28;19917;-78
2022/01/02 02:07:09;;;;;;;;;;;;;;;-3.05;63.63;98696.94;4997615;28;20285;-78
2022/01/02 02:10:09;;;;;;;;;;;;;;;-3.35;64.83;98708.59;4998115;28;20380;-78
2022/01/02 02:12:21;;;;;;;;;;;;;;;-3.17;65.68;98712.59;4997143;28;20380;-79
2022/01/02 02:14:48;;;;;;;;;;;;;;;-3.14;65.65;98703.44;5013752;28;19917;-78
2022/01/02 02:17:13;;;;;;;;;;;;;;;-2.77;66.50;98712.28;4997676;28;20391;-78
2022/01/02 02:19:39;;;;;;;;;;;;;;;-3.18;64.17;98705.81;4997564;28;19949;-78
2022/01/02 02:22:06;;;;;;;;;;;;;;;-3.18;65.91;98696.53;4997901;28;19921;-78
2022/01/02 02:24:32;;;;;;;;;;;;;;;-3.15;66.04;98711.00;4997639;28;19913;-78
2022/01/02 02:26:58;;;;;;;;;;;;;;;-2.96;66.76;98715.03;5013886;28;19967;-78
2022/01/02 02:29:23;;;;;;;;;;;;;;;-3.03;64.67;98711.41;5014000;28;20450;-78
2022/01/02 02:31:49;;;;;;;;;;;;;;;-3.17;64.22;98713.47;4997535;28;20449;-78
2022/01/02 02:34:15;;;;;;;;;;;;;;;-3.11;64.79;98718.78;5013389;28;19913;-78
2022/01/02 02:36:41;;;;;;;;;;;;;;;-3.21;65.00;98731.06;5013679;28;19917;-78
2022/01/02 02:39:07;;;;;;;;;;;;;;;-3.19;64.68;98722.69;4997357;28;19996;-78
2022/01/02 02:41:35;;;;;;;;;;;;;;;-3.39;63.60;98741.41;5013369;28;20045;-78
2022/01/02 02:44:09;;;;;;;;;;;;;;;-3.52;64.34;98734.19;5012654;28;19924;-78
2022/01/02 02:49:19;;;;;;;;;;;;;;;-3.56;66.55;98747.56;5014563;28;19917;-78
2022/01/02 02:51:54;;;;;;;;;;;;;;;-3.53;65.42;98740.03;4997078;28;20007;-78
2022/01/02 02:54:28;;;;;;;;;;;;;;;-3.30;66.44;98740.88;5013237;28;19976;-78
2022/01/02 02:56:56;;;;;;;;;;;;;;;-3.44;65.81;98747.97;5013154;28;19963;-78
2022/01/02 02:59:26;;;;;;;;;;;;;;;-3.32;67.52;98748.44;4996952;28;19913;-78
2022/01/02 03:01:52;;;;;;;;;;;;;;;-3.53;66.41;98753.56;5029544;28;19917;-78
2022/01/02 03:04:18;;;;;;;;;;;;;;;-3.43;67.44;98757.34;5013156;28;20323;-78
2022/01/02 03:06:43;;;;;;;;;;;;;;;-3.53;67.85;98753.56;5014440;28;19921;-78
2022/01/02 03:09:10;;;;;;;;;;;;;;;-3.56;67.88;98752.63;4996614;28;20308;-78
2022/01/02 03:11:39;;;;;;;;;;;;;;;-3.81;68.95;98749.16;5012349;28;19921;-78
2022/01/02 03:14:06;;;;;;;;;;;;;;;-3.86;69.26;98754.03;4996361;28;19914;-78
2022/01/02 03:16:32;;;;;;;;;;;;;;;-3.71;69.38;98763.91;5012690;28;19967;-78
2022/01/02 03:18:58;;;;;;;;;;;;;;;-3.72;69.22;98769.78;4996457;28;19916;-78
2022/01/02 03:21:24;;;;;;;;;;;;;;;-3.32;68.89;98766.19;5012849;28;19921;-78
2022/01/02 03:23:50;;;;;;;;;;;;;;;-3.36;67.85;98766.88;4996115;28;19924;-78
2022/01/02 03:26:16;;;;;;;;;;;;;;;-3.18;67.78;98777.69;5012667;28;20392;-78
2022/01/02 03:28:42;;;;;;;;;;;;;;;-3.38;68.35;98788.78;4996456;28;19944;-79
2022/01/02 03:31:07;;;;;;;;;;;;;;;-3.12;68.51;98777.03;5012362;28;19917;-78
2022/01/02 03:33:34;;;;;;;;;;;;;;;-3.07;67.78;98780.59;5013708;28;19952;-78
2022/01/02 03:36:01;;;;;;;;;;;;;;;-3.15;67.23;98782.88;5012131;28;20399;-78
2022/01/02 03:38:27;;;;;;;;;;;;;;;-3.36;67.43;98777.03;5012397;28;19917;-78
2022/01/02 03:40:52;;;;;;;;;;;;;;;-3.20;68.48;98794.53;5012327;28;19980;-78
2022/01/02 03:43:18;;;;;;;;;;;;;;;-3.12;68.60;98805.81;4995917;28;20011;-78
2022/01/02 03:45:44;;;;;;;;;;;;;;;-3.32;67.06;98801.69;4995908;28;19917;-78
2022/01/02 03:48:09;;;;;;;;;;;;;;;-3.08;68.27;98810.19;5013686;28;19920;-78
2022/01/02 03:50:35;;;;;;;;;;;;;;;-2.79;67.22;98802.75;5013676;28;20399;-78
2022/01/02 03:53:01;;;;;;;;;;;;;;;-2.64;66.76;98805.81;4995797;28;20330;-78
2022/01/02 03:55:26;;;;;;;;;;;;;;;-2.78;65.24;98806.16;5011987;28;19925;-78
2022/01/02 03:57:52;;;;;;;;;;;;;;;-2.89;65.82;98811.69;4996084;28;19936;-78
2022/01/02 04:00:21;;;;;;;;;;;;;;;-2.96;65.56;98814.84;4995697;28;19964;-78
2022/01/02 04:02:46;;;;;;;;;;;;;;;-3.14;67.40;98820.13;4995708;28;19936;-78
2022/01/02 04:05:13;;;;;;;;;;;;;;;-2.94;66.85;98827.56;5011853;28;19924;-78
2022/01/02 04:07:39;;;;;;;;;;;;;;;-2.99;65.61;98821.47;5011849;28;19928;-78
2022/01/02 04:10:06;;;;;;;;;;;;;;;-2.91;66.50;98836.16;5011837;28;19921;-78
2022/01/02 04:12:33;;;;;;;;;;;;;;;-3.01;66.81;98840.88;5011799;28;20295;-78
2022/01/02 04:14:58;;;;;;;;;;;;;;;-3.16;65.78;98842.03;5011822;28;19921;-78
2022/01/02 04:17:24;;;;;;;;;;;;;;;-3.45;65.03;98838.41;4995465;28;20303;-78
2022/01/02 04:19:50;;;;;;;;;;;;;;;-3.12;66.03;98837.91;4995385;28;19917;-78
2022/01/02 04:22:16;;;;;;;;;;;;;;;-3.13;64.66;98832.00;4995536;28;19917;-77
2022/01/02 04:24:42;;;;;;;;;;;;;;;-3.50;63.50;98844.09;5011637;28;19931;-78
2022/01/02 04:27:07;;;;;;;;;;;;;;;-3.40;65.97;98856.31;5012978;28;20008;-78
2022/01/02 04:29:33;;;;;;;;;;;;;;;-3.48;65.15;98843.38;5011587;28;19928;-78
2022/01/02 04:31:58;;;;;;;;;;;;;;;-3.58;63.32;98851.41;4995529;28;19920;-78
2022/01/02 04:34:24;;;;;;;;;;;;;;;-3.87;64.44;98862.94;4995243;28;20292;-78
2022/01/02 04:36:50;;;;;;;;;;;;;;;-4.11;65.66;98863.69;4995445;28;19913;-78
2022/01/02 04:39:15;;;;;;;;;;;;;;;-3.73;66.39;98869.44;4995196;28;19917;-77
2022/01/02 04:41:41;;;;;;;;;;;;;;;-3.59;65.95;98868.28;4995034;28;20063;-78
2022/01/02 04:44:06;;;;;;;;;;;;;;;-3.59;65.81;98870.81;5011346;28;19917;-78
2022/01/02 04:46:32;;;;;;;;;;;;;;;-3.38;65.79;98869.94;4995062;28;19913;-78
2022/01/02 04:48:58;;;;;;;;;;;;;;;-3.64;63.62;98877.38;5011447;28;20349;-78
2022/01/02 04:51:23;;;;;;;;;;;;;;;-4.17;63.31;98873.59;4995099;28;20303;-78
2022/01/02 04:53:49;;;;;;;;;;;;;;;-3.63;65.17;98881.66;5012759;28;19917;-78
2022/01/02 04:56:16;;;;;;;;;;;;;;;-3.60;64.34;98891.91;4994999;28;20347;-78
2022/01/02 04:58:42;;;;;;;;;;;;;;;-3.75;61.59;98896.41;5011561;28;19964;-79
2022/01/02 05:01:11;;;;;;;;;;;;;;;-3.82;62.49;98902.00;5011444;28;19914;-77
2022/01/02 05:03:40;;;;;;;;;;;;;;;-3.70;64.45;98915.19;5010793;28;19917;-78
2022/01/02 05:06:06;;;;;;;;;;;;;;;-3.54;64.06;98908.16;5011237;28;19967;-78
2022/01/02 05:08:33;;;;;;;;;;;;;;;-3.85;61.44;98920.50;5015112;28;20316;-78
2022/01/02 05:10:59;;;;;;;;;;;;;;;-3.50;63.33;98940.44;4998959;28;19913;-78
2022/01/02 05:13:25;;;;;;;;;;;;;;;-3.75;60.94;98924.28;5015496;28;19917;-78
2022/01/02 05:15:50;;;;;;;;;;;;;;;-3.78;62.02;98920.75;5016303;28;19957;-78
2022/01/02 05:18:16;;;;;;;;;;;;;;;-3.88;62.07;98919.50;5016266;28;19924;-78
2022/01/02 05:20:46;;;;;;;;;;;;;;;-3.92;61.99;98932.84;5016514;28;19921;-78
2022/01/02 05:23:15;;;;;;;;;;;;;;;-3.87;62.47;98941.50;5014959;28;19921;-78
2022/01/02 05:25:40;;;;;;;;;;;;;;;-3.90;62.56;98954.03;5015142;28;19920;-78
2022/01/02 05:28:06;;;;;;;;;;;;;;;-4.03;63.26;98962.81;5014665;28;19917;-78
2022/01/02 05:30:31;;;;;;;;;;;;;;;-4.41;63.12;98946.81;4998595;28;19913;-78
2022/01/02 05:32:57;;;;;;;;;;;;;;;-4.23;63.73;98949.28;5014901;28;19918;-78
2022/01/02 05:35:23;;;;;;;;;;;;;;;-4.53;64.56;98964.03;5014924;28;19921;-77
2022/01/02 05:37:48;;;;;;;;;;;;;;;-4.34;64.82;98965.69;4998784;28;19917;-78
2022/01/02 05:40:14;;;;;;;;;;;;;;;-4.21;65.46;98952.75;4998634;28;19921;-78
2022/01/02 05:42:40;;;;;;;;;;;;;;;-4.03;64.89;98945.06;4998302;28;20395;-77
2022/01/02 05:45:05;;;;;;;;;;;;;;;-4.32;63.63;98948.88;5015689;28;20016;-77
2022/01/02 05:47:31;;;;;;;;;;;;;;;-4.29;64.34;98950.69;4998399;28;19924;-78
2022/01/02 05:49:56;;;;;;;;;;;;;;;-4.54;63.17;98952.13;4998246;28;19913;-77
2022/01/02 05:52:22;;;;;;;;;;;;;;;-4.45;64.83;98952.53;5014477;28;20499;-77
2022/01/02 05:54:48;;;;;;;;;;;;;;;-4.14;65.27;98954.72;4998015;28;19952;-78
2022/01/02 05:57:13;;;;;;;;;;;;;;;-4.15;64.25;98950.47;5014581;28;20020;-78
2022/01/02 05:59:40;;;;;;;;;;;;;;;-4.48;63.26;98964.22;4998309;28;19984;-79
2022/01/02 06:02:06;;;;;;;;;;;;;;;-4.85;64.57;98967.66;5014430;28;19955;-77
2022/01/02 06:04:32;;;;;;;;;;;;;;;-5.14;65.83;98946.91;5014367;28;19913;-77
2022/01/02 06:06:58;;;;;;;;;;;;;;;-4.48;65.29;98949.03;4998023;28;19917;-77
2022/01/02 06:09:25;;;;;;;;;;;;;;;-4.42;65.45;98955.22;4998060;28;19913;-78
2022/01/02 06:11:51;;;;;;;;;;;;;;;-4.38;64.36;98971.41;5013890;28;20277;-78
2022/01/02 06:14:18;;;;;;;;;;;;;;;-4.45;63.61;98971.94;4997821;28;19913;-77
2022/01/02 06:16:44;;;;;;;;;;;;;;;-4.34;63.60;98965.69;5014187;28;20406;-78
2022/01/02 06:19:09;;;;;;;;;;;;;;;-4.15;63.90;98975.81;4996664;28;20000;-77
2022/01/02 06:21:35;;;;;;;;;;;;;;;-4.16;63.54;98969.00;5015097;28;19917;-77
2022/01/02 06:24:00;;;;;;;;;;;;;;;-4.20;63.22;98995.00;4997796;28;20380;-77
2022/01/02 06:26:26;;;;;;;;;;;;;;;-4.11;63.31;98974.28;4997799;28;19917;-78
2022/01/02 06:28:52;;;;;;;;;;;;;;;-4.21;63.35;98978.09;5015280;28;19922;-77
2022/01/02 06:31:18;;;;;;;;;;;;;;;-4.03;63.36;98982.19;5013828;28;19917;-77
2022/01/02 06:33:43;;;;;;;;;;;;;;;-4.09;62.27;98978.59;4997774;28;19917;-78
2022/01/02 06:36:09;;;;;;;;;;;;;;;-4.25;63.25;98985.47;5013782;28;19928;-78
2022/01/02 06:38:35;;;;;;;;;;;;;;;-4.39;64.05;98977.28;4997298;28;20368;-77
2022/01/02 06:41:00;;;;;;;;;;;;;;;-4.91;62.32;98985.91;5013553;28;19921;-77
2022/01/02 06:43:26;;;;;;;;;;;;;;;-4.80;64.05;98993.16;4997184;28;19940;-77
2022/01/02 06:45:51;;;;;;;;;;;;;;;-5.02;63.31;98993.81;5013340;28;19971;-77
2022/01/02 06:48:17;;;;;;;;;;;;;;;-5.06;65.16;98992.81;4997127;28;19913;-77
2022/01/02 06:50:43;;;;;;;;;;;;;;;-4.37;64.66;98985.81;5013541;28;20388;-78
2022/01/02 06:53:09;;;;;;;;;;;;;;;-4.25;63.66;98999.00;4997221;28;19914;-79
2022/01/02 06:55:36;;;;;;;;;;;;;;;-4.23;63.38;98986.41;5013316;28;19921;-78
2022/01/02 06:58:02;;;;;;;;;;;;;;;-3.95;63.13;98998.56;5015378;28;19959;-78
2022/01/02 07:00:28;;;;;;;;;;;;;;;-3.95;62.90;98994.38;4997391;28;20304;-78
2022/01/02 07:02:54;;;;;;;;;;;;;;;-4.34;62.31;99008.72;4997452;28;19920;-78
2022/01/02 07:05:19;;;;;;;;;;;;;;;-4.09;62.77;98996.31;5029508;28;20369;-79
2022/01/02 07:07:45;;;;;;;;;;;;;;;-4.05;62.59;98993.94;4997174;28;19921;-77
2022/01/02 07:10:12;;;;;;;;;;;;;;;-4.11;63.22;98992.88;5013273;28;19917;-78
2022/01/02 07:12:38;;;;;;;;;;;;;;;-4.21;61.04;99008.47;5013551;28;19917;-78
2022/01/02 07:15:07;;;;;;;;;;;;;;;-3.95;62.41;99012.09;5029551;28;20384;-78
2022/01/02 07:17:33;;;;;;;;;;;;;;;-3.76;62.09;99020.50;5014517;28;19914;-77
2022/01/02 07:19:59;;;;;;;;;;;;;;;-3.92;61.90;99027.44;5014399;28;19924;-79
2022/01/02 07:22:24;;;;;;;;;;;;;;;-4.28;60.32;99031.78;4996782;28;19921;-79
2022/01/02 07:24:51;;;;;;;;;;;;;;;-4.22;61.99;99038.78;5014521;28;20273;-78
2022/01/02 07:27:17;;;;;;;;;;;;;;;-4.25;61.09;99037.00;5014077;28;19920;-78
2022/01/02 07:29:43;;;;;;;;;;;;;;;-4.05;61.00;99044.59;5013943;28;19931;-76
2022/01/02 07:32:08;;;;;;;;;;;;;;;-4.29;61.09;99055.38;5014042;28;20007;-79
2022/01/02 07:34:34;;;;;;;;;;;;;;;-3.83;61.01;99045.59;5013987;28;19936;-78
2022/01/02 07:36:59;;;;;;;;;;;;;;;-3.80;61.07;99060.06;5014008;28;19975;-77
2022/01/02 07:39:25;;;;;;;;;;;;;;;-4.05;60.75;99069.91;5012558;28;20285;-79
2022/01/02 07:41:50;;;;;;;;;;;;;;;-4.25;60.89;99061.44;5013921;28;19917;-78
2022/01/02 07:44:20;;;;;;;;;;;;;;;-4.23;61.65;99065.78;4996987;28;19917;-77
2022/01/02 07:46:46;;;;;;;;;;;;;;;-4.37;61.47;99069.34;5012828;28;19940;-77
2022/01/02 07:49:11;;;;;;;;;;;;;;;-4.47;61.54;99073.13;4996243;28;19914;-79
2022/01/02 07:51:37;;;;;;;;;;;;;;;-4.27;60.61;99089.22;5012685;28;19917;-78
2022/01/02 07:54:02;;;;;;;;;;;;;;;-4.14;61.56;99068.72;5013588;28;19917;-78
2022/01/02 07:56:28;;;;;;;;;;;;;;;-4.42;59.94;99083.47;4979783;28;19929;-78
2022/01/02 07:58:55;;;;;;;;;;;;;;;-4.90;60.37;99083.81;5012409;28;19924;-77
2022/01/02 08:01:21;;;;;;;;;;;;;;;-4.55;62.77;99087.09;5013604;28;19917;-78
2022/01/02 08:03:46;;;;;;;;;;;;;;;-4.73;61.20;99088.78;5013401;28;19920;-78
2022/01/02 08:06:12;;;;;;;;;;;;;;;-4.78;61.64;99088.56;5013547;28;19924;-78
2022/01/02 08:08:37;;;;;;;;;;;;;;;-4.73;62.56;99083.72;4995915;28;19925;-77
2022/01/02 08:11:03;;;;;;;;;;;;;;;-4.37;62.23;99093.00;5013605;28;19921;-78
2022/01/02 08:13:28;;;;;;;;;;;;;;;-4.44;61.47;99105.34;5013642;28;19914;-77
2022/01/02 08:15:54;;;;;;;;;;;;;;;-4.35;61.68;99111.69;5012038;28;20332;-79
2022/01/02 08:18:20;;;;;;;;;;;;;;;-4.42;62.00;99109.66;5013560;28;19913;-79
2022/01/02 08:20:48;;;;;;;;;;;;;;;-4.85;60.21;99121.97;4996009;28;19996;-78
2022/01/02 08:23:14;;;;;;;;;;;;;;;-4.43;62.36;99099.47;5013475;28;19987;-78
2022/01/02 08:25:39;;;;;;;;;;;;;;;-4.52;61.87;99107.50;5012244;28;19918;-79
2022/01/02 08:28:04;;;;;;;;;;;;;;;-4.42;62.28;99103.72;5013648;28;20277;-79
2022/01/02 08:30:30;;;;;;;;;;;;;;;-4.41;62.21;99100.38;5012262;28;20300;-78
2022/01/02 08:32:56;;;;;;;;;;;;;;;-4.57;61.23;99103.03;5012540;28;20376;-79
2022/01/02 08:35:21;;;;;;;;;;;;;;;-4.78;61.30;99101.22;5013344;28;19928;-77
2022/01/02 08:37:46;;;;;;;;;;;;;;;-4.73;63.17;99104.81;5013228;28;19921;-77
2022/01/02 08:40:12;;;;;;;;;;;;;;;-4.85;63.32;99106.78;5011600;28;19921;-79
2022/01/02 08:42:37;;;;;;;;;;;;;;;-4.44;62.83;99100.25;5012953;28;19925;-77
2022/01/02 08:45:03;;;;;;;;;;;;;;;-4.43;62.26;99117.19;5013329;28;19975;-78
2022/01/02 08:47:29;;;;;;;;;;;;;;;-4.12;62.08;99107.66;5011297;28;19914;-78
2022/01/02 08:49:54;;;;;;;;;;;;;;;-4.30;60.51;99116.94;5012976;28;19917;-76
2022/01/02 08:52:20;;;;;;;;;;;;;;;-4.63;61.34;99113.69;5011832;28;19914;-77
2022/01/02 08:54:45;;;;;;;;;;;;;;;-4.89;61.92;99120.94;5012857;28;19925;-77
2022/01/02 08:57:11;;;;;;;;;;;;;;;-4.77;62.75;99120.66;5013150;28;20015;-77
2022/01/02 08:59:36;;;;;;;;;;;;;;;-4.64;62.28;99112.84;5011893;28;19917;-78
2022/01/02 09:02:02;;;;;;;;;;;;;;;-4.74;61.90;99108.16;5011841;28;19917;-78
2022/01/02 09:04:27;;;;;;;;;;;;;;;-4.53;63.64;99115.03;5011939;28;20055;-78
2022/01/02 09:06:53;;;;;;;;;;;;;;;-4.54;62.19;99110.75;5012874;28;20376;-78
2022/01/02 09:09:19;;;;;;;;;;;;;;;-4.42;62.00;99106.25;5012799;28;19924;-78
2022/01/02 09:11:45;;;;;;;;;;;;;;;-4.35;62.38;99099.03;5012926;28;19920;-79
2022/01/02 09:14:10;;;;;;;;;;;;;;;-4.46;61.03;99097.66;5011817;28;19917;-77
2022/01/02 09:16:35;;;;;;;;;;;;;;;-4.64;61.94;99100.19;4994991;28;19918;-78
2022/01/02 09:19:01;;;;;;;;;;;;;;;-4.87;62.86;99104.16;5012724;28;19983;-78
2022/01/02 09:21:27;;;;;;;;;;;;;;;-4.86;62.33;99100.88;5012111;28;19960;-78
2022/01/02 09:23:52;;;;;;;;;;;;;;;-4.41;63.45;99111.38;5012314;28;19928;-77
2022/01/02 09:26:18;;;;;;;;;;;;;;;-4.66;61.42;99114.44;4994765;28;19913;-78
2022/01/02 09:28:43;;;;;;;;;;;;;;;-4.53;62.62;99115.91;5012675;28;19922;-79
2022/01/02 09:31:08;;;;;;;;;;;;;;;-4.37;63.07;99108.19;5012711;28;20391;-78
2022/01/02 09:33:34;;;;;;;;;;;;;;;-4.23;62.31;99101.22;5012829;28;19964;-79
2022/01/02 09:35:59;;;;;;;;;;;;;;;-4.24;62.43;99109.63;5012646;28;19924;-78
2022/01/02 09:38:25;;;;;;;;;;;;;;;-5.00;61.82;99098.44;4995137;28;19924;-81
2022/01/02 09:40:50;;;;;;;;;;;;;;;-4.53;63.28;99083.00;4994911;28;19960;-78
2022/01/02 09:43:16;;;;;;;;;;;;;;;-4.46;62.77;99079.06;5011036;28;20294;-78
2022/01/02 09:45:44;;;;;;;;;;;;;;;-4.72;61.83;99082.91;5012769;28;20438;-78
2022/01/02 09:48:10;;;;;;;;;;;;;;;-4.67;63.11;99086.56;4995234;28;19924;-79
2022/01/02 09:50:37;;;;;;;;;;;;;;;-4.48;63.45;99080.66;5011547;28;19914;-79
2022/01/02 09:53:03;;;;;;;;;;;;;;;-4.12;63.45;99074.72;5013750;28;19928;-78
2022/01/02 09:55:28;;;;;;;;;;;;;;;-4.32;60.82;99079.69;5016136;28;19917;-77
2022/01/02 09:57:58;;;;;;;;;;;;;;;-4.60;61.26;99076.75;5016182;28;20319;-78
2022/01/02 10:00:24;;;;;;;;;;;;;;;-4.61;61.71;99081.75;5015891;28;20301;-77
2022/01/02 10:02:55;;;;;;;;;;;;;;;-4.70;61.61;99081.34;5015921;28;19920;-77
2022/01/02 10:05:24;;;;;;;;;;;;;;;-4.48;62.53;99083.19;5015952;28;20376;-78
2022/01/02 10:07:49;;;;;;;;;;;;;;;-4.50;61.13;99082.25;5014853;28;19952;-78
2022/01/02 10:10:15;;;;;;;;;;;;;;;-4.23;62.63;99082.63;5014931;28;19917;-77
2022/01/02 10:12:40;;;;;;;;;;;;;;;-4.15;62.30;99084.72;5016099;28;20296;-77
2022/01/02 10:15:06;;;;;;;;;;;;;;;-3.97;62.44;99083.78;5014831;28;20064;-77
2022/01/02 10:17:50;;;;;;;;;;;;;;;-4.18;61.20;99086.22;4998413;28;19913;-78
2022/01/02 10:20:16;;;;;;;;;;;;;;;-3.97;62.38;99084.66;5014864;28;19923;-79
2022/01/02 10:23:01;;;;;;;;;;;;;;;-4.14;60.02;99078.84;4998332;28;20295;-79
2022/01/02 10:25:39;;;;;;;;;;;;;;;-4.23;60.12;99069.97;4997938;28;20436;-79
2022/01/02 10:28:17;;;;;;;;;;;;;;;-4.31;61.28;99079.75;5015159;28;19968;-79
2022/01/02 10:30:49;;;;;;;;;;;;;;;-4.47;62.03;99083.25;5016152;28;19921;-77
2022/01/02 10:33:15;;;;;;;;;;;;;;;-4.46;62.79;99100.19;5015719;28;19921;-78
2022/01/02 10:35:43;;;;;;;;;;;;;;;-4.14;62.86;99103.31;4997578;28;19924;-78
2022/01/02 10:38:15;;;;;;;;;;;;;;;-4.53;62.53;99109.97;5013993;28;19924;-78
2022/01/02 10:40:42;;;;;;;;;;;;;;;-4.19;62.74;99112.38;5015182;28;19921;-78
2022/01/02 10:43:10;;;;;;;;;;;;;;;-4.46;60.82;99109.44;4997539;28;19917;-83
2022/01/02 10:45:35;;;;;;;;;;;;;;;-4.37;61.92;99112.41;5015372;28;19939;-77
2022/01/02 10:48:02;;;;;;;;;;;;;;;-4.39;61.33;99107.28;5015149;28;20008;-77
2022/01/02 10:50:27;;;;;;;;;;;;;;;-4.51;62.55;99109.22;5014839;28;20011;-77
2022/01/02 10:52:53;;;;;;;;;;;;;;;-4.32;62.39;99116.00;4997513;28;20083;-78
2022/01/02 10:55:19;;;;;;;;;;;;;;;-4.46;61.64;99101.84;5014931;28;19921;-78
2022/01/02 10:57:49;;;;;;;;;;;;;;;-4.49;62.46;99101.69;5013739;28;19971;-78
2022/01/02 11:00:19;;;;;;;;;;;;;;;-4.62;62.26;99103.69;5014285;28;19918;-78
2022/01/02 11:02:44;;;;;;;;;;;;;;;-4.78;63.23;99107.94;5014304;28;19977;-77
2022/01/02 11:05:10;;;;;;;;;;;;;;;-4.95;63.20;99125.72;5013266;28;20410;-78
2022/01/02 11:07:39;;;;;;;;;;;;;;;-4.98;63.87;99095.22;5015025;28;19963;-77
2022/01/02 11:10:04;;;;;;;;;;;;;;;-4.94;64.73;99099.63;5014646;28;19917;-77
2022/01/02 11:12:30;;;;;;;;;;;;;;;-4.91;64.50;99107.34;5014591;28;20004;-76
2022/01/02 11:14:56;;;;;;;;;;;;;;;-4.74;64.58;99107.28;5013553;28;19925;-78
2022/01/02 11:17:21;;;;;;;;;;;;;;;-4.52;64.29;99101.56;5014757;28;20385;-78
2022/01/02 11:19:47;;;;;;;;;;;;;;;-4.56;63.49;99090.44;5013259;28;19975;-78
2022/01/02 11:22:14;;;;;;;;;;;;;;;-4.78;62.51;99091.09;4996939;28;20009;-78
2022/01/02 11:24:50;;;;;;;;;;;;;;;-5.04;64.33;99105.03;5013248;28;20378;-78
2022/01/02 11:27:37;;;;;;;;;;;;;;;-4.97;64.81;99106.19;5013356;28;19921;-79
2022/01/02 11:30:26;;;;;;;;;;;;;;;-4.77;64.52;99117.25;5013035;28;20351;-79
2022/01/02 11:33:07;;;;;;;;;;;;;;;-4.79;64.57;99121.38;5008942;28;19944;-78
2022/01/02 11:35:32;;;;;;;;;;;;;;;-5.04;65.23;99124.38;5012896;28;20370;-78
2022/01/02 11:38:02;;;;;;;;;;;;;;;-4.99;64.96;99128.03;5013125;28;19917;-78
2022/01/02 11:40:43;;;;;;;;;;;;;;;-4.75;65.73;99129.19;5013006;28;19928;-78
2022/01/02 11:43:08;;;;;;;;;;;;;;;-4.85;64.51;99134.63;5014208;28;19917;-78
2022/01/02 11:45:37;;;;;;;;;;;;;;;-4.86;63.69;99130.31;5014274;28;20422;-78
2022/01/02 11:48:22;;;;;;;;;;;;;;;-4.58;64.15;99121.50;4996597;28;19921;-77
2022/01/02 11:50:49;;;;;;;;;;;;;;;-4.62;63.46;99123.06;5013880;28;19923;-78
2022/01/02 11:53:35;;;;;;;;;;;;;;;-4.60;63.09;99119.78;5014030;28;19913;-78
2022/01/02 11:56:01;;;;;;;;;;;;;;;-4.64;62.94;99127.16;5012610;28;19921;-78
2022/01/02 11:58:38;;;;;;;;;;;;;;;-4.53;63.86;99118.44;4996298;28;19971;-78
2022/01/02 12:01:04;;;;;;;;;;;;;;;-4.93;62.97;99128.31;5013954;28;20464;-78
2022/01/02 12:03:38;;;;;;;;;;;;;;;-4.82;64.46;99117.03;5012779;28;20060;-76
2022/01/02 12:06:13;;;;;;;;;;;;;;;-4.85;63.94;99114.38;5012566;28;19924;-77
2022/01/02 12:08:39;;;;;;;;;;;;;;;-4.81;63.72;99123.84;5012629;28;19940;-79
2022/01/02 12:11:24;;;;;;;;;;;;;;;-4.62;63.71;99111.28;5012750;28;20008;-77
2022/01/02 12:14:01;;;;;;;;;;;;;;;-4.63;62.77;99112.06;5013751;28;19960;-78
2022/01/02 12:16:34;;;;;;;;;;;;;;;-4.75;62.73;99119.06;4994944;28;19921;-77
2022/01/02 12:19:00;;;;;;;;;;;;;;;-4.53;62.77;99123.50;4996134;28;19917;-78
2022/01/02 12:21:26;;;;;;;;;;;;;;;-4.67;63.09;99130.44;4996068;28;19914;-78
2022/01/02 12:23:53;;;;;;;;;;;;;;;-4.81;63.64;99118.78;5012449;28;19921;-78
2022/01/02 12:26:22;;;;;;;;;;;;;;;-4.95;63.82;99119.75;4996045;28;19943;-78
2022/01/02 12:29:12;;;;;;;;;;;;;;;-5.00;64.74;99122.06;4995971;28;20299;-77
2022/01/02 12:31:38;;;;;;;;;;;;;;;-4.50;64.58;99122.75;5013347;28;19921;-77
2022/01/02 12:34:10;;;;;;;;;;;;;;;-4.41;63.68;99129.09;5012031;28;19961;-80
2022/01/02 12:36:36;;;;;;;;;;;;;;;-4.61;62.08;99140.84;5013284;28;19935;-77
2022/01/02 12:39:05;;;;;;;;;;;;;;;-4.43;63.81;99129.84;4995569;28;19914;-76
2022/01/02 12:41:32;;;;;;;;;;;;;;;-4.67;62.73;99130.44;5011783;28;19921;-77
2022/01/02 12:44:04;;;;;;;;;;;;;;;-4.83;63.59;99130.47;5013134;28;19924;-78
2022/01/02 12:46:33;;;;;;;;;;;;;;;-4.94;64.08;99139.22;5013141;28;19917;-77
2022/01/02 12:48:59;;;;;;;;;;;;;;;-4.90;64.38;99143.66;5012094;28;19936;-79
2022/01/02 12:51:29;;;;;;;;;;;;;;;-5.12;64.26;99145.13;5011954;28;19917;-78
2022/01/02 12:54:03;;;;;;;;;;;;;;;-4.95;64.87;99140.91;5011819;28;20454;-78
2022/01/02 12:56:33;;;;;;;;;;;;;;;-4.90;64.74;99139.47;5013210;28;19928;-78